sensor_id;sensor_type;location;lat;lon;timestamp;temperature;humidity
20432;DHT22;10375;49.136;10.366;2023-05-23T00:01:03;17.50;99.90
20432;DHT22;10375;49.136;10.366;2023-05-23T00:03:33;17.50;99.90
20432;DHT22;10375;49.136;10.366;2023-05-23T00:06:04;17.50;99.90
20432;DHT22;10375;49.136;10.366;2023-05-23T00:08:31;17.50;99.90
20432;DHT22;10375;49.136;10.366;2023-05-23T00:11:00;17.50;99.90
20432;DHT22;10375;49.136;10.366;2023-05-23T00:13:27;17.50;99.90
20432;DHT22;10375;49.136;10.366;2023-05-23T00:15:55;17.50;99.90
20432;DHT22;10375;49.136;10.366;2023-05-23T00:18:23;17.40;99.90
20432;DHT22;10375;49.136;10.366;2023-05-23T00:20:50;17.40;99.90
20432;DHT22;10375;49.136;10.366;2023-05-23T00:23:17;17.30;99.90
20432;DHT22;10375;49.136;10.366;2023-05-23T00:25:47;17.30;99.90
20432;DHT22;10375;49.136;10.366;2023-05-23T00:28:19;17.30;99.90
20432;DHT22;10375;49.136;10.366;2023-05-23T00:30:47;17.30;99.90
20432;DHT22;10375;49.136;10.366;2023-05-23T00:33:17;17.20;99.90
20432;DHT22;10375;49.136;10.366;2023-05-23T00:35:48;17.20;99.90
20432;DHT22;10375;49.136;10.366;2023-05-23T00:38:15;17.20;99.90
20432;DHT22;10375;49.136;10.366;2023-05-23T00:40:42;17.10;99.90
20432;DHT22;10375;49.136;10.366;2023-05-23T00:43:15;17.10;99.90
20432;DHT22;10375;49.136;10.366;2023-05-23T00:45:43;17.10;99.90
20432;DHT22;10375;49.136;10.366;2023-05-23T00:48:13;17.10;99.90
20432;DHT22;10375;49.136;10.366;2023-05-23T00:50:42;17.00;99.90
20432;DHT22;10375;49.136;10.366;2023-05-23T00:53:10;16.90;99.90
20432;DHT22;10375;49.136;10.366;2023-05-23T00:55:41;16.90;99.90
20432;DHT22;10375;49.136;10.366;2023-05-23T00:58:10;16.90;99.90
20432;DHT22;10375;49.136;10.366;2023-05-23T01:00:39;16.90;99.90
20432;DHT22;10375;49.136;10.366;2023-05-23T01:03:06;16.80;99.90
20432;DHT22;10375;49.136;10.366;2023-05-23T01:05:34;16.80;99.90
20432;DHT22;10375;49.136;10.366;2023-05-23T01:08:01;16.80;99.90
20432;DHT22;10375;49.136;10.366;2023-05-23T01:10:30;16.70;99.90
20432;DHT22;10375;49.136;10.366;2023-05-23T01:13:15;16.60;99.90
20432;DHT22;10375;49.136;10.366;2023-05-23T01:16:27;16.60;99.90
20432;DHT22;10375;49.136;10.366;2023-05-23T01:22:00;16.50;99.90
20432;DHT22;10375;49.136;10.366;2023-05-23T01:24:35;16.40;99.90
20432;DHT22;10375;49.136;10.366;2023-05-23T01:27:22;16.40;99.90
20432;DHT22;10375;49.136;10.366;2023-05-23T01:29:55;16.40;99.90
20432;DHT22;10375;49.136;10.366;2023-05-23T01:32:25;16.30;99.90
20432;DHT22;10375;49.136;10.366;2023-05-23T01:34:55;16.30;99.90
20432;DHT22;10375;49.136;10.366;2023-05-23T01:37:23;16.30;99.90
20432;DHT22;10375;49.136;10.366;2023-05-23T01:39:51;16.30;99.90
20432;DHT22;10375;49.136;10.366;2023-05-23T01:42:22;16.30;99.90
20432;DHT22;10375;49.136;10.366;2023-05-23T01:44:51;16.30;99.90
20432;DHT22;10375;49.136;10.366;2023-05-23T01:47:20;16.30;99.90
20432;DHT22;10375;49.136;10.366;2023-05-23T01:49:50;16.30;99.90
20432;DHT22;10375;49.136;10.366;2023-05-23T01:52:19;16.30;99.90
20432;DHT22;10375;49.136;10.366;2023-05-23T01:54:50;16.30;99.90
20432;DHT22;10375;49.136;10.366;2023-05-23T01:57:19;16.20;99.90
20432;DHT22;10375;49.136;10.366;2023-05-23T01:59:50;16.20;99.90
20432;DHT22;10375;49.136;10.366;2023-05-23T02:02:21;16.10;99.90
20432;DHT22;10375;49.136;10.366;2023-05-23T02:04:49;16.00;99.90
20432;DHT22;10375;49.136;10.366;2023-05-23T02:07:20;16.00;99.90
20432;DHT22;10375;49.136;10.366;2023-05-23T02:09:49;15.90;99.90
20432;DHT22;10375;49.136;10.366;2023-05-23T02:12:20;15.80;99.90
20432;DHT22;10375;49.136;10.366;2023-05-23T02:14:49;15.80;99.90
20432;DHT22;10375;49.136;10.366;2023-05-23T02:17:18;15.80;99.90
20432;DHT22;10375;49.136;10.366;2023-05-23T02:19:51;15.70;99.90
20432;DHT22;10375;49.136;10.366;2023-05-23T02:22:24;15.70;99.90
20432;DHT22;10375;49.136;10.366;2023-05-23T02:24:54;15.70;99.90
20432;DHT22;10375;49.136;10.366;2023-05-23T02:27:23;15.70;99.90
20432;DHT22;10375;49.136;10.366;2023-05-23T02:29:54;15.70;99.90
20432;DHT22;10375;49.136;10.366;2023-05-23T02:32:24;15.60;99.90
20432;DHT22;10375;49.136;10.366;2023-05-23T02:34:55;15.60;99.90
20432;DHT22;10375;49.136;10.366;2023-05-23T02:37:30;15.60;99.90
20432;DHT22;10375;49.136;10.366;2023-05-23T02:40:06;15.50;99.90
20432;DHT22;10375;49.136;10.366;2023-05-23T02:42:40;15.60;99.90
20432;DHT22;10375;49.136;10.366;2023-05-23T02:45:10;15.60;99.90
20432;DHT22;10375;49.136;10.366;2023-05-23T02:47:41;15.60;99.90
20432;DHT22;10375;49.136;10.366;2023-05-23T02:50:17;15.70;99.90
20432;DHT22;10375;49.136;10.366;2023-05-23T02:52:53;15.70;99.90
20432;DHT22;10375;49.136;10.366;2023-05-23T02:55:26;15.70;99.90
20432;DHT22;10375;49.136;10.366;2023-05-23T02:58:00;15.70;99.90
20432;DHT22;10375;49.136;10.366;2023-05-23T03:00:36;15.70;99.90
20432;DHT22;10375;49.136;10.366;2023-05-23T03:03:22;15.70;99.90
20432;DHT22;10375;49.136;10.366;2023-05-23T03:05:50;15.70;99.90
20432;DHT22;10375;49.136;10.366;2023-05-23T03:08:18;15.80;99.90
20432;DHT22;10375;49.136;10.366;2023-05-23T03:10:51;15.80;99.90
20432;DHT22;10375;49.136;10.366;2023-05-23T03:13:22;15.80;99.90
20432;DHT22;10375;49.136;10.366;2023-05-23T03:15:59;15.80;99.90
20432;DHT22;10375;49.136;10.366;2023-05-23T03:18:32;15.80;99.90
20432;DHT22;10375;49.136;10.366;2023-05-23T03:21:06;15.80;99.90
20432;DHT22;10375;49.136;10.366;2023-05-23T03:23:54;15.80;99.90
20432;DHT22;10375;49.136;10.366;2023-05-23T03:26:26;15.80;99.90
20432;DHT22;10375;49.136;10.366;2023-05-23T03:29:02;15.90;99.90
20432;DHT22;10375;49.136;10.366;2023-05-23T03:31:31;15.90;99.90
20432;DHT22;10375;49.136;10.366;2023-05-23T03:33:59;15.90;99.90
20432;DHT22;10375;49.136;10.366;2023-05-23T03:36:30;15.90;99.90
20432;DHT22;10375;49.136;10.366;2023-05-23T03:39:06;15.90;99.90
20432;DHT22;10375;49.136;10.366;2023-05-23T03:41:41;15.90;99.90
20432;DHT22;10375;49.136;10.366;2023-05-23T03:44:22;15.90;99.90
20432;DHT22;10375;49.136;10.366;2023-05-23T03:46:56;15.90;99.90
20432;DHT22;10375;49.136;10.366;2023-05-23T03:49:34;16.00;99.90
20432;DHT22;10375;49.136;10.366;2023-05-23T03:52:07;16.00;99.90
20432;DHT22;10375;49.136;10.366;2023-05-23T03:54:41;16.00;99.90
20432;DHT22;10375;49.136;10.366;2023-05-23T03:57:15;16.00;99.90
20432;DHT22;10375;49.136;10.366;2023-05-23T03:59:46;16.10;99.90
20432;DHT22;10375;49.136;10.366;2023-05-23T04:02:14;16.10;99.90
20432;DHT22;10375;49.136;10.366;2023-05-23T04:04:42;16.10;99.90
20432;DHT22;10375;49.136;10.366;2023-05-23T04:07:17;16.20;99.90
20432;DHT22;10375;49.136;10.366;2023-05-23T04:09:49;16.20;99.90
20432;DHT22;10375;49.136;10.366;2023-05-23T04:12:19;16.30;99.90
20432;DHT22;10375;49.136;10.366;2023-05-23T04:14:50;16.30;99.90
20432;DHT22;10375;49.136;10.366;2023-05-23T04:17:23;16.40;99.90
20432;DHT22;10375;49.136;10.366;2023-05-23T04:19:57;16.40;99.90
20432;DHT22;10375;49.136;10.366;2023-05-23T04:22:36;16.40;99.90
20432;DHT22;10375;49.136;10.366;2023-05-23T04:25:03;16.40;99.90
20432;DHT22;10375;49.136;10.366;2023-05-23T04:27:30;16.40;99.90
20432;DHT22;10375;49.136;10.366;2023-05-23T04:29:59;16.50;99.90
20432;DHT22;10375;49.136;10.366;2023-05-23T04:32:27;16.40;99.90
20432;DHT22;10375;49.136;10.366;2023-05-23T04:34:56;16.50;99.90
20432;DHT22;10375;49.136;10.366;2023-05-23T04:37:24;16.50;99.90
20432;DHT22;10375;49.136;10.366;2023-05-23T04:39:52;16.50;99.90
20432;DHT22;10375;49.136;10.366;2023-05-23T04:42:19;16.50;99.90
20432;DHT22;10375;49.136;10.366;2023-05-23T04:44:50;16.50;99.90
20432;DHT22;10375;49.136;10.366;2023-05-23T04:47:18;16.50;99.90
20432;DHT22;10375;49.136;10.366;2023-05-23T04:49:45;16.50;99.90
20432;DHT22;10375;49.136;10.366;2023-05-23T04:52:13;16.50;99.90
20432;DHT22;10375;49.136;10.366;2023-05-23T04:54:40;16.60;99.90
20432;DHT22;10375;49.136;10.366;2023-05-23T04:57:11;16.60;99.90
20432;DHT22;10375;49.136;10.366;2023-05-23T04:59:38;16.70;99.90
20432;DHT22;10375;49.136;10.366;2023-05-23T05:02:06;16.90;99.90
20432;DHT22;10375;49.136;10.366;2023-05-23T05:04:33;17.00;99.90
20432;DHT22;10375;49.136;10.366;2023-05-23T05:07:01;17.20;99.90
20432;DHT22;10375;49.136;10.366;2023-05-23T05:09:30;17.20;99.90
20432;DHT22;10375;49.136;10.366;2023-05-23T05:11:58;17.30;99.90
20432;DHT22;10375;49.136;10.366;2023-05-23T05:14:26;17.30;99.90
20432;DHT22;10375;49.136;10.366;2023-05-23T05:16:53;17.30;99.90
20432;DHT22;10375;49.136;10.366;2023-05-23T05:19:23;17.30;99.90
20432;DHT22;10375;49.136;10.366;2023-05-23T05:21:50;17.30;99.90
20432;DHT22;10375;49.136;10.366;2023-05-23T05:24:18;17.30;99.90
20432;DHT22;10375;49.136;10.366;2023-05-23T05:26:47;17.20;99.90
20432;DHT22;10375;49.136;10.366;2023-05-23T05:29:15;17.20;99.90
20432;DHT22;10375;49.136;10.366;2023-05-23T05:31:42;17.20;99.90
20432;DHT22;10375;49.136;10.366;2023-05-23T05:34:12;17.30;99.90
20432;DHT22;10375;49.136;10.366;2023-05-23T05:36:39;17.40;99.90
20432;DHT22;10375;49.136;10.366;2023-05-23T05:39:14;17.50;99.90
20432;DHT22;10375;49.136;10.366;2023-05-23T05:41:41;18.00;99.90
20432;DHT22;10375;49.136;10.366;2023-05-23T05:44:09;18.70;99.90
20432;DHT22;10375;49.136;10.366;2023-05-23T05:46:36;19.70;99.90
20432;DHT22;10375;49.136;10.366;2023-05-23T05:49:06;21.40;99.90
20432;DHT22;10375;49.136;10.366;2023-05-23T05:51:35;22.70;99.90
20432;DHT22;10375;49.136;10.366;2023-05-23T05:54:03;23.80;99.90
20432;DHT22;10375;49.136;10.366;2023-05-23T05:56:30;25.40;99.90
20432;DHT22;10375;49.136;10.366;2023-05-23T05:58:57;26.70;98.00
20432;DHT22;10375;49.136;10.366;2023-05-23T06:01:25;27.80;95.40
20432;DHT22;10375;49.136;10.366;2023-05-23T06:03:52;28.70;93.20
20432;DHT22;10375;49.136;10.366;2023-05-23T06:06:20;29.50;91.20
20432;DHT22;10375;49.136;10.366;2023-05-23T06:08:47;30.20;89.50
20432;DHT22;10375;49.136;10.366;2023-05-23T06:11:14;30.60;87.40
20432;DHT22;10375;49.136;10.366;2023-05-23T06:13:42;30.90;84.50
20432;DHT22;10375;49.136;10.366;2023-05-23T06:16:09;31.00;83.30
20432;DHT22;10375;49.136;10.366;2023-05-23T06:18:49;31.20;80.60
20432;DHT22;10375;49.136;10.366;2023-05-23T06:21:16;31.30;79.60
20432;DHT22;10375;49.136;10.366;2023-05-23T06:23:43;31.40;78.80
20432;DHT22;10375;49.136;10.366;2023-05-23T06:26:11;30.80;79.80
20432;DHT22;10375;49.136;10.366;2023-05-23T06:28:38;29.40;81.20
20432;DHT22;10375;49.136;10.366;2023-05-23T06:31:06;27.70;84.90
20432;DHT22;10375;49.136;10.366;2023-05-23T06:34:01;26.20;88.60
20432;DHT22;10375;49.136;10.366;2023-05-23T06:36:28;25.50;91.00
20432;DHT22;10375;49.136;10.366;2023-05-23T06:39:03;25.70;90.50
20432;DHT22;10375;49.136;10.366;2023-05-23T06:41:30;26.00;90.20
20432;DHT22;10375;49.136;10.366;2023-05-23T06:43:57;25.40;90.20
20432;DHT22;10375;49.136;10.366;2023-05-23T06:46:28;24.60;91.50
20432;DHT22;10375;49.136;10.366;2023-05-23T06:48:55;23.50;92.90
20432;DHT22;10375;49.136;10.366;2023-05-23T06:51:39;22.60;94.60
20432;DHT22;10375;49.136;10.366;2023-05-23T06:54:06;22.10;96.00
20432;DHT22;10375;49.136;10.366;2023-05-23T06:56:33;22.10;95.80
20432;DHT22;10375;49.136;10.366;2023-05-23T06:59:02;21.90;96.20
20432;DHT22;10375;49.136;10.366;2023-05-23T07:01:29;21.50;96.90
20432;DHT22;10375;49.136;10.366;2023-05-23T07:03:56;21.40;97.50
20432;DHT22;10375;49.136;10.366;2023-05-23T07:06:27;21.30;98.00
20432;DHT22;10375;49.136;10.366;2023-05-23T07:08:54;21.10;98.20
20432;DHT22;10375;49.136;10.366;2023-05-23T07:11:21;21.00;98.70
20432;DHT22;10375;49.136;10.366;2023-05-23T07:13:49;21.10;98.40
20432;DHT22;10375;49.136;10.366;2023-05-23T07:16:16;21.10;99.00
20432;DHT22;10375;49.136;10.366;2023-05-23T07:18:43;21.00;99.00
20432;DHT22;10375;49.136;10.366;2023-05-23T07:21:10;20.80;99.20
20432;DHT22;10375;49.136;10.366;2023-05-23T07:23:37;20.60;99.50
20432;DHT22;10375;49.136;10.366;2023-05-23T07:26:05;20.40;99.90
20432;DHT22;10375;49.136;10.366;2023-05-23T07:28:35;20.20;99.90
20432;DHT22;10375;49.136;10.366;2023-05-23T07:31:04;20.20;99.90
20432;DHT22;10375;49.136;10.366;2023-05-23T07:33:31;20.40;99.90
20432;DHT22;10375;49.136;10.366;2023-05-23T07:36:03;21.00;99.90
20432;DHT22;10375;49.136;10.366;2023-05-23T07:38:30;23.70;97.20
20432;DHT22;10375;49.136;10.366;2023-05-23T07:40:57;24.40;93.80
20432;DHT22;10375;49.136;10.366;2023-05-23T07:43:37;23.90;94.30
20432;DHT22;10375;49.136;10.366;2023-05-23T07:46:07;23.20;94.60
20432;DHT22;10375;49.136;10.366;2023-05-23T07:48:34;22.50;95.70
20432;DHT22;10375;49.136;10.366;2023-05-23T07:51:03;21.90;96.70
20432;DHT22;10375;49.136;10.366;2023-05-23T07:53:30;21.20;97.30
20432;DHT22;10375;49.136;10.366;2023-05-23T07:56:01;20.70;98.40
20432;DHT22;10375;49.136;10.366;2023-05-23T07:58:28;20.30;99.20
20432;DHT22;10375;49.136;10.366;2023-05-23T08:00:56;20.10;99.60
20432;DHT22;10375;49.136;10.366;2023-05-23T08:03:24;19.90;99.80
20432;DHT22;10375;49.136;10.366;2023-05-23T08:05:59;19.80;99.90
20432;DHT22;10375;49.136;10.366;2023-05-23T08:08:26;19.70;99.90
20432;DHT22;10375;49.136;10.366;2023-05-23T08:10:53;19.80;99.90
20432;DHT22;10375;49.136;10.366;2023-05-23T08:13:20;19.90;99.90
20432;DHT22;10375;49.136;10.366;2023-05-23T08:15:47;20.10;99.90
20432;DHT22;10375;49.136;10.366;2023-05-23T08:18:15;20.80;99.90
20432;DHT22;10375;49.136;10.366;2023-05-23T08:20:42;21.60;98.20
20432;DHT22;10375;49.136;10.366;2023-05-23T08:23:09;21.50;97.20
20432;DHT22;10375;49.136;10.366;2023-05-23T08:25:38;21.40;97.70
20432;DHT22;10375;49.136;10.366;2023-05-23T08:28:05;21.20;98.00
20432;DHT22;10375;49.136;10.366;2023-05-23T08:30:32;21.10;97.70
20432;DHT22;10375;49.136;10.366;2023-05-23T08:33:02;21.40;97.70
20432;DHT22;10375;49.136;10.366;2023-05-23T08:35:30;21.60;97.20
20432;DHT22;10375;49.136;10.366;2023-05-23T08:38:05;21.70;96.90
20432;DHT22;10375;49.136;10.366;2023-05-23T08:40:34;21.70;96.80
20432;DHT22;10375;49.136;10.366;2023-05-23T08:43:02;21.80;97.00
20432;DHT22;10375;49.136;10.366;2023-05-23T08:45:29;21.80;96.10
20432;DHT22;10375;49.136;10.366;2023-05-23T08:47:59;22.10;96.40
20432;DHT22;10375;49.136;10.366;2023-05-23T08:50:29;22.40;95.40
20432;DHT22;10375;49.136;10.366;2023-05-23T08:52:58;22.50;95.30
20432;DHT22;10375;49.136;10.366;2023-05-23T08:55:28;22.60;94.70
20432;DHT22;10375;49.136;10.366;2023-05-23T08:57:59;22.70;95.00
20432;DHT22;10375;49.136;10.366;2023-05-23T09:00:27;22.30;95.30
20432;DHT22;10375;49.136;10.366;2023-05-23T09:02:55;21.70;95.50
20432;DHT22;10375;49.136;10.366;2023-05-23T09:05:23;21.10;96.80
20432;DHT22;10375;49.136;10.366;2023-05-23T09:07:52;20.80;97.40
20432;DHT22;10375;49.136;10.366;2023-05-23T09:10:20;20.50;97.30
20432;DHT22;10375;49.136;10.366;2023-05-23T09:12:47;20.50;97.60
20432;DHT22;10375;49.136;10.366;2023-05-23T09:15:14;20.50;97.60
20432;DHT22;10375;49.136;10.366;2023-05-23T09:17:43;20.70;97.30
20432;DHT22;10375;49.136;10.366;2023-05-23T09:20:13;21.00;97.30
20432;DHT22;10375;49.136;10.366;2023-05-23T09:22:47;21.30;96.90
20432;DHT22;10375;49.136;10.366;2023-05-23T09:25:15;21.40;96.70
20432;DHT22;10375;49.136;10.366;2023-05-23T09:27:42;21.40;95.50
20432;DHT22;10375;49.136;10.366;2023-05-23T09:30:13;21.70;95.30
20432;DHT22;10375;49.136;10.366;2023-05-23T09:32:41;22.20;95.00
20432;DHT22;10375;49.136;10.366;2023-05-23T09:35:08;22.50;94.20
20432;DHT22;10375;49.136;10.366;2023-05-23T09:37:44;22.60;94.10
20432;DHT22;10375;49.136;10.366;2023-05-23T09:40:13;23.20;93.00
20432;DHT22;10375;49.136;10.366;2023-05-23T09:42:46;23.20;92.40
20432;DHT22;10375;49.136;10.366;2023-05-23T09:45:15;23.00;92.40
20432;DHT22;10375;49.136;10.366;2023-05-23T09:47:49;22.70;92.30
20432;DHT22;10375;49.136;10.366;2023-05-23T09:50:20;22.40;93.30
20432;DHT22;10375;49.136;10.366;2023-05-23T09:52:47;21.90;93.00
20432;DHT22;10375;49.136;10.366;2023-05-23T09:55:14;21.50;93.90
20432;DHT22;10375;49.136;10.366;2023-05-23T09:57:43;21.10;94.90
20432;DHT22;10375;49.136;10.366;2023-05-23T10:00:12;20.90;94.90
20432;DHT22;10375;49.136;10.366;2023-05-23T10:08:06;20.50;95.40
20432;DHT22;10375;49.136;10.366;2023-05-23T10:13:25;20.70;94.10
20432;DHT22;10375;49.136;10.366;2023-05-23T10:21:45;20.50;94.00
20432;DHT22;10375;49.136;10.366;2023-05-23T10:24:17;20.40;94.10
20432;DHT22;10375;49.136;10.366;2023-05-23T10:26:45;20.40;95.00
20432;DHT22;10375;49.136;10.366;2023-05-23T10:29:13;20.50;94.60
20432;DHT22;10375;49.136;10.366;2023-05-23T10:31:41;20.50;94.70
20432;DHT22;10375;49.136;10.366;2023-05-23T10:37:04;20.20;95.10
20432;DHT22;10375;49.136;10.366;2023-05-23T10:45:21;20.30;94.20
20432;DHT22;10375;49.136;10.366;2023-05-23T10:47:50;20.60;94.50
20432;DHT22;10375;49.136;10.366;2023-05-23T10:50:33;20.90;94.00
20432;DHT22;10375;49.136;10.366;2023-05-23T10:53:04;21.10;93.90
20432;DHT22;10375;49.136;10.366;2023-05-23T10:55:35;21.10;93.90
20432;DHT22;10375;49.136;10.366;2023-05-23T10:58:15;21.00;93.40
20432;DHT22;10375;49.136;10.366;2023-05-23T11:00:55;20.50;93.50
20432;DHT22;10375;49.136;10.366;2023-05-23T11:03:37;20.30;94.40
20432;DHT22;10375;49.136;10.366;2023-05-23T11:06:49;20.20;94.80
20432;DHT22;10375;49.136;10.366;2023-05-23T11:09:17;20.20;95.50
20432;DHT22;10375;49.136;10.366;2023-05-23T11:17:00;20.40;94.60
20432;DHT22;10375;49.136;10.366;2023-05-23T11:19:28;20.70;94.80
20432;DHT22;10375;49.136;10.366;2023-05-23T11:22:01;21.70;93.90
20432;DHT22;10375;49.136;10.366;2023-05-23T11:27:33;23.60;89.70
20432;DHT22;10375;49.136;10.366;2023-05-23T11:30:04;24.20;88.30
20432;DHT22;10375;49.136;10.366;2023-05-23T11:32:33;24.90;90.80
20432;DHT22;10375;49.136;10.366;2023-05-23T11:35:06;25.40;87.40
20432;DHT22;10375;49.136;10.366;2023-05-23T11:37:35;25.40;82.70
20432;DHT22;10375;49.136;10.366;2023-05-23T11:42:55;24.80;84.50
20432;DHT22;10375;49.136;10.366;2023-05-23T11:45:23;24.20;88.00
20432;DHT22;10375;49.136;10.366;2023-05-23T11:47:51;23.90;88.50
20432;DHT22;10375;49.136;10.366;2023-05-23T11:50:21;23.80;88.50
20432;DHT22;10375;49.136;10.366;2023-05-23T11:52:51;23.50;86.50
20432;DHT22;10375;49.136;10.366;2023-05-23T11:55:21;23.20;88.90
20432;DHT22;10375;49.136;10.366;2023-05-23T11:57:49;23.00;89.70
20432;DHT22;10375;49.136;10.366;2023-05-23T12:00:18;22.90;89.10
20432;DHT22;10375;49.136;10.366;2023-05-23T12:02:45;22.90;90.00
20432;DHT22;10375;49.136;10.366;2023-05-23T12:05:16;22.90;90.50
20432;DHT22;10375;49.136;10.366;2023-05-23T12:07:47;22.80;89.80
20432;DHT22;10375;49.136;10.366;2023-05-23T12:10:16;22.70;90.20
20432;DHT22;10375;49.136;10.366;2023-05-23T12:12:45;22.70;90.20
20432;DHT22;10375;49.136;10.366;2023-05-23T12:15:13;22.60;90.10
20432;DHT22;10375;49.136;10.366;2023-05-23T12:17:44;22.50;90.10
20432;DHT22;10375;49.136;10.366;2023-05-23T12:20:15;22.50;90.90
20432;DHT22;10375;49.136;10.366;2023-05-23T12:22:42;22.60;90.70
20432;DHT22;10375;49.136;10.366;2023-05-23T12:25:10;22.50;90.50
20432;DHT22;10375;49.136;10.366;2023-05-23T12:27:40;22.40;90.70
20432;DHT22;10375;49.136;10.366;2023-05-23T12:30:12;22.20;90.20
20432;DHT22;10375;49.136;10.366;2023-05-23T12:32:41;22.20;91.20
20432;DHT22;10375;49.136;10.366;2023-05-23T12:35:10;22.30;90.90
20432;DHT22;10375;49.136;10.366;2023-05-23T12:37:40;22.70;90.30
20432;DHT22;10375;49.136;10.366;2023-05-23T12:40:16;23.10;89.80
20432;DHT22;10375;49.136;10.366;2023-05-23T12:42:51;22.80;89.20
20432;DHT22;10375;49.136;10.366;2023-05-23T12:45:23;22.30;90.30
20432;DHT22;10375;49.136;10.366;2023-05-23T12:47:51;21.80;90.50
20432;DHT22;10375;49.136;10.366;2023-05-23T12:50:20;21.50;91.00
20432;DHT22;10375;49.136;10.366;2023-05-23T12:52:48;21.40;91.80
20432;DHT22;10375;49.136;10.366;2023-05-23T12:55:15;21.50;91.50
20432;DHT22;10375;49.136;10.366;2023-05-23T12:57:42;21.70;92.10
20432;DHT22;10375;49.136;10.366;2023-05-23T13:00:14;21.80;91.50
20432;DHT22;10375;49.136;10.366;2023-05-23T13:02:41;22.00;90.70
20432;DHT22;10375;49.136;10.366;2023-05-23T13:05:09;22.00;91.30
20432;DHT22;10375;49.136;10.366;2023-05-23T13:07:40;22.10;90.70
20432;DHT22;10375;49.136;10.366;2023-05-23T13:10:07;22.10;91.50
20432;DHT22;10375;49.136;10.366;2023-05-23T13:12:35;22.20;91.50
20432;DHT22;10375;49.136;10.366;2023-05-23T13:15:05;22.20;91.00
20432;DHT22;10375;49.136;10.366;2023-05-23T13:17:32;22.30;91.30
20432;DHT22;10375;49.136;10.366;2023-05-23T13:20:03;22.20;90.50
20432;DHT22;10375;49.136;10.366;2023-05-23T13:22:31;22.00;90.50
20432;DHT22;10375;49.136;10.366;2023-05-23T13:25:17;21.90;90.60
20432;DHT22;10375;49.136;10.366;2023-05-23T13:27:44;22.00;90.80
20432;DHT22;10375;49.136;10.366;2023-05-23T13:30:14;22.20;90.30
20432;DHT22;10375;49.136;10.366;2023-05-23T13:32:44;22.60;91.00
20432;DHT22;10375;49.136;10.366;2023-05-23T13:35:12;23.30;89.60
20432;DHT22;10375;49.136;10.366;2023-05-23T13:37:39;23.60;87.90
20432;DHT22;10375;49.136;10.366;2023-05-23T13:40:07;23.50;88.00
20432;DHT22;10375;49.136;10.366;2023-05-23T13:42:38;23.30;87.80
20432;DHT22;10375;49.136;10.366;2023-05-23T13:45:06;23.00;88.10
20432;DHT22;10375;49.136;10.366;2023-05-23T13:47:34;22.80;88.80
20432;DHT22;10375;49.136;10.366;2023-05-23T13:50:08;22.60;89.60
20432;DHT22;10375;49.136;10.366;2023-05-23T13:52:35;22.60;90.30
20432;DHT22;10375;49.136;10.366;2023-05-23T13:55:03;22.50;89.30
20432;DHT22;10375;49.136;10.366;2023-05-23T13:57:31;22.50;89.90
20432;DHT22;10375;49.136;10.366;2023-05-23T13:59:58;22.40;89.60
20432;DHT22;10375;49.136;10.366;2023-05-23T14:02:25;22.40;88.30
20432;DHT22;10375;49.136;10.366;2023-05-23T14:04:56;22.70;90.70
20432;DHT22;10375;49.136;10.366;2023-05-23T14:07:24;23.00;90.50
20432;DHT22;10375;49.136;10.366;2023-05-23T14:09:52;23.10;88.60
20432;DHT22;10375;49.136;10.366;2023-05-23T14:12:22;23.30;90.00
20432;DHT22;10375;49.136;10.366;2023-05-23T14:14:50;23.60;88.00
20432;DHT22;10375;49.136;10.366;2023-05-23T14:17:17;23.90;86.80
20432;DHT22;10375;49.136;10.366;2023-05-23T14:19:45;24.00;87.40
20432;DHT22;10375;49.136;10.366;2023-05-23T14:22:13;24.00;87.20
20432;DHT22;10375;49.136;10.366;2023-05-23T14:24:40;23.60;87.20
20432;DHT22;10375;49.136;10.366;2023-05-23T14:27:08;23.00;87.00
20432;DHT22;10375;49.136;10.366;2023-05-23T14:29:37;22.60;88.60
20432;DHT22;10375;49.136;10.366;2023-05-23T14:32:05;22.30;90.30
20432;DHT22;10375;49.136;10.366;2023-05-23T14:34:32;22.20;90.50
20432;DHT22;10375;49.136;10.366;2023-05-23T14:37:00;22.10;91.30
20432;DHT22;10375;49.136;10.366;2023-05-23T14:39:27;22.10;91.60
20432;DHT22;10375;49.136;10.366;2023-05-23T14:41:56;22.40;91.60
20432;DHT22;10375;49.136;10.366;2023-05-23T14:44:23;22.40;90.30
20432;DHT22;10375;49.136;10.366;2023-05-23T14:46:50;22.20;90.70
20432;DHT22;10375;49.136;10.366;2023-05-23T14:49:19;21.90;90.70
20432;DHT22;10375;49.136;10.366;2023-05-23T14:51:48;21.60;91.20
20432;DHT22;10375;49.136;10.366;2023-05-23T14:54:30;21.40;91.50
20432;DHT22;10375;49.136;10.366;2023-05-23T14:57:11;21.50;91.70
20432;DHT22;10375;49.136;10.366;2023-05-23T14:59:45;21.60;92.00
20432;DHT22;10375;49.136;10.366;2023-05-23T15:02:16;21.60;91.10
20432;DHT22;10375;49.136;10.366;2023-05-23T15:04:43;21.60;91.80
20432;DHT22;10375;49.136;10.366;2023-05-23T15:07:11;21.70;91.10
20432;DHT22;10375;49.136;10.366;2023-05-23T15:09:55;21.70;91.90
20432;DHT22;10375;49.136;10.366;2023-05-23T15:12:38;21.80;91.90
20432;DHT22;10375;49.136;10.366;2023-05-23T15:15:11;21.70;91.70
20432;DHT22;10375;49.136;10.366;2023-05-23T15:17:45;21.70;91.10
20432;DHT22;10375;49.136;10.366;2023-05-23T15:20:15;21.80;91.40
20432;DHT22;10375;49.136;10.366;2023-05-23T15:22:51;21.80;90.40
20432;DHT22;10375;49.136;10.366;2023-05-23T15:25:27;21.80;91.10
20432;DHT22;10375;49.136;10.366;2023-05-23T15:28:15;21.70;90.70
20432;DHT22;10375;49.136;10.366;2023-05-23T15:30:42;21.70;91.70
20432;DHT22;10375;49.136;10.366;2023-05-23T15:33:10;21.70;91.70
20432;DHT22;10375;49.136;10.366;2023-05-23T15:35:38;21.60;91.70
20432;DHT22;10375;49.136;10.366;2023-05-23T15:38:06;21.50;92.10
20432;DHT22;10375;49.136;10.366;2023-05-23T15:40:33;21.40;92.30
20432;DHT22;10375;49.136;10.366;2023-05-23T15:46:01;20.70;91.90
20432;DHT22;10375;49.136;10.366;2023-05-23T15:48:29;20.40;92.60
20432;DHT22;10375;49.136;10.366;2023-05-23T15:51:26;20.40;93.20
20432;DHT22;10375;49.136;10.366;2023-05-23T15:53:54;20.80;93.40
20432;DHT22;10375;49.136;10.366;2023-05-23T15:56:27;21.00;92.60
20432;DHT22;10375;49.136;10.366;2023-05-23T15:58:54;20.80;92.40
20432;DHT22;10375;49.136;10.366;2023-05-23T16:01:22;20.60;93.00
20432;DHT22;10375;49.136;10.366;2023-05-23T16:03:49;20.50;93.30
20432;DHT22;10375;49.136;10.366;2023-05-23T16:06:17;20.40;93.80
20432;DHT22;10375;49.136;10.366;2023-05-23T16:08:45;20.30;93.70
20432;DHT22;10375;49.136;10.366;2023-05-23T16:11:13;20.10;93.90
20432;DHT22;10375;49.136;10.366;2023-05-23T16:13:40;20.00;94.40